Time;durP1;ratioP1;P1;durP2;ratioP2;P2;SDS_P1;SDS_P2;PMS_P1;PMS_P2;Temp;Humidity;BMP_temperature;BMP_pressure;BME280_temperature;BME280_humidity;BME280_pressure;Samples;Min_cycle;Max_cycle;Signal;HPM_P1;HPM_P2
2024/01/16 00:00:22;;;;;;;;;85.25;65.75;;;;;;;;5063323;28;45287;-77
2024/01/16 00:02:48;;;;;;;;;82.75;65.75;;;;;;;;5062553;28;45269;-77
2024/01/16 00:05:13;;;;;;;;;85.25;68.50;;;;;;;;5062299;28;45368;-77
2024/01/16 00:07:39;;;;;;;;;79.00;64.75;;;;;;;;5044718;28;45316;-76
2024/01/16 00:10:06;;;;;;;;;74.25;60.25;;;;;;;;5072884;28;45410;-77
2024/01/16 00:12:32;;;;;;;;;74.75;61.50;;;;;;;;5063489;28;45229;-77
2024/01/16 00:14:57;;;;;;;;;77.75;62.50;;;;;;;;5053875;28;48374;-77
2024/01/16 00:17:22;;;;;;;;;73.75;59.75;;;;;;;;5043950;28;45486;-77
2024/01/16 00:19:47;;;;;;;;;67.50;54.50;;;;;;;;5044634;28;45668;-76
2024/01/16 00:22:12;;;;;;;;;73.25;59.00;;;;;;;;5044326;28;45502;-77
2024/01/16 00:24:38;;;;;;;;;66.00;54.00;;;;;;;;5063012;28;45351;-77
2024/01/16 00:27:03;;;;;;;;;64.00;55.25;;;;;;;;5064726;28;45140;-77
2024/01/16 00:29:28;;;;;;;;;68.75;57.50;;;;;;;;5064233;28;45256;-77
2024/01/16 00:31:53;;;;;;;;;61.25;52.00;;;;;;;;5045567;28;46159;-76
2024/01/16 00:34:18;;;;;;;;;49.50;45.50;;;;;;;;5063837;28;45545;-77
2024/01/16 00:36:43;;;;;;;;;60.25;52.00;;;;;;;;5063024;28;45265;-77
2024/01/16 00:39:09;;;;;;;;;49.50;44.75;;;;;;;;5064355;28;45518;-77
2024/01/16 00:41:34;;;;;;;;;62.00;48.50;;;;;;;;5044934;28;46506;-77
2024/01/16 00:44:00;;;;;;;;;45.50;42.00;;;;;;;;5063274;28;45406;-77
2024/01/16 00:46:25;;;;;;;;;47.25;42.25;;;;;;;;5046127;28;45210;-77
2024/01/16 00:48:50;;;;;;;;;62.25;47.50;;;;;;;;5061629;28;45288;-77
2024/01/16 00:51:15;;;;;;;;;47.25;43.25;;;;;;;;5063191;28;45384;-76
2024/01/16 00:53:41;;;;;;;;;44.75;41.25;;;;;;;;5044855;28;47127;-76
2024/01/16 00:56:06;;;;;;;;;41.00;34.25;;;;;;;;5045797;28;45297;-77
2024/01/16 00:58:31;;;;;;;;;40.25;38.50;;;;;;;;5064435;28;45346;-77
2024/01/16 01:00:56;;;;;;;;;49.75;44.50;;;;;;;;5063547;28;45289;-76
2024/01/16 01:03:22;;;;;;;;;58.00;49.25;;;;;;;;5049067;28;47336;-77
2024/01/16 01:05:47;;;;;;;;;59.50;46.75;;;;;;;;5070179;28;45317;-77
2024/01/16 01:08:12;;;;;;;;;50.75;46.00;;;;;;;;5064838;28;45685;-77
2024/01/16 01:10:37;;;;;;;;;56.00;48.25;;;;;;;;5045623;28;46127;-77
2024/01/16 01:13:02;;;;;;;;;54.75;46.00;;;;;;;;5045203;28;47196;-77
2024/01/16 01:15:27;;;;;;;;;57.25;46.75;;;;;;;;5064878;28;45382;-78
2024/01/16 01:17:54;;;;;;;;;60.50;49.75;;;;;;;;5072614;28;45352;-76
2024/01/16 01:20:19;;;;;;;;;50.50;45.75;;;;;;;;5044632;28;46435;-78
2024/01/16 01:22:45;;;;;;;;;41.00;39.25;;;;;;;;5043361;28;47806;-78
2024/01/16 01:25:10;;;;;;;;;50.50;45.25;;;;;;;;5065860;28;45414;-77
2024/01/16 01:27:36;;;;;;;;;45.50;42.50;;;;;;;;5066367;28;45272;-77
2024/01/16 01:30:01;;;;;;;;;51.25;44.75;;;;;;;;5065717;28;45466;-77
2024/01/16 01:32:26;;;;;;;;;53.50;45.25;;;;;;;;5045750;28;46914;-77
2024/01/16 01:34:52;;;;;;;;;47.50;43.50;;;;;;;;5064830;28;45352;-77
2024/01/16 01:37:17;;;;;;;;;63.75;48.00;;;;;;;;5066980;28;45565;-78
2024/01/16 01:39:42;;;;;;;;;52.25;44.75;;;;;;;;5044812;28;46159;-78
2024/01/16 01:42:07;;;;;;;;;63.50;51.25;;;;;;;;5065226;28;45346;-77
2024/01/16 01:44:32;;;;;;;;;53.00;46.50;;;;;;;;5047586;28;46145;-77
2024/01/16 01:46:58;;;;;;;;;52.50;46.25;;;;;;;;5065632;28;45274;-77
2024/01/16 01:49:24;;;;;;;;;59.00;49.25;;;;;;;;5065120;28;45236;-77
2024/01/16 01:51:50;;;;;;;;;59.25;47.00;;;;;;;;5064833;28;46591;-77
2024/01/16 01:54:16;;;;;;;;;56.75;48.75;;;;;;;;5066369;28;45458;-77
2024/01/16 01:56:46;;;;;;;;;61.75;51.00;;;;;;;;5047302;28;45365;-78
2024/01/16 01:59:11;;;;;;;;;67.25;54.00;;;;;;;;5063082;28;45536;-78
2024/01/16 02:01:36;;;;;;;;;72.00;58.25;;;;;;;;5063622;28;45530;-77
2024/01/16 02:04:02;;;;;;;;;72.75;59.25;;;;;;;;5045574;28;45616;-77
2024/01/16 02:06:27;;;;;;;;;62.25;52.75;;;;;;;;5051308;28;45289;-77
2024/01/16 02:08:52;;;;;;;;;67.00;55.00;;;;;;;;5050231;28;45980;-78
2024/01/16 02:11:18;;;;;;;;;62.25;51.50;;;;;;;;5048837;28;47178;-78
2024/01/16 02:13:43;;;;;;;;;65.00;53.50;;;;;;;;5065021;28;45414;-77
2024/01/16 02:16:21;;;;;;;;;71.25;55.75;;;;;;;;5045676;28;45541;-77
2024/01/16 02:18:46;;;;;;;;;65.50;51.75;;;;;;;;5068435;28;45269;-78
2024/01/16 02:21:12;;;;;;;;;66.25;54.50;;;;;;;;5064916;28;48379;-78
2024/01/16 02:23:37;;;;;;;;;68.00;57.25;;;;;;;;5093457;28;45311;-77
2024/01/16 02:26:03;;;;;;;;;64.50;53.25;;;;;;;;5083041;28;45334;-78
2024/01/16 02:28:28;;;;;;;;;62.50;54.00;;;;;;;;5093689;28;45294;-78
2024/01/16 02:30:53;;;;;;;;;70.00;58.00;;;;;;;;5065587;28;48690;-77
2024/01/16 02:33:18;;;;;;;;;71.50;57.00;;;;;;;;5087467;28;45354;-78
2024/01/16 02:35:43;;;;;;;;;68.00;55.25;;;;;;;;5065918;28;45349;-77
2024/01/16 02:38:08;;;;;;;;;60.75;49.00;;;;;;;;5085151;28;45374;-78
2024/01/16 02:40:34;;;;;;;;;63.00;51.25;;;;;;;;5084398;28;46223;-78
2024/01/16 02:42:59;;;;;;;;;61.50;51.25;;;;;;;;5065922;28;45374;-77
2024/01/16 02:45:24;;;;;;;;;69.50;53.75;;;;;;;;5065460;28;45317;-79
2024/01/16 02:47:50;;;;;;;;;68.25;54.75;;;;;;;;5065820;28;45775;-78
2024/01/16 02:50:15;;;;;;;;;63.75;52.75;;;;;;;;5086777;28;45364;-77
2024/01/16 02:52:40;;;;;;;;;55.75;48.50;;;;;;;;5069547;28;45910;-78
2024/01/16 02:55:06;;;;;;;;;56.50;44.00;;;;;;;;5089090;28;45270;-77
2024/01/16 02:57:31;;;;;;;;;67.50;56.25;;;;;;;;5069461;28;45534;-78
2024/01/16 02:59:56;;;;;;;;;61.50;53.00;;;;;;;;5049356;28;46829;-78
2024/01/16 03:02:23;;;;;;;;;69.75;56.25;;;;;;;;5045449;28;45164;-77
2024/01/16 03:04:48;;;;;;;;;54.00;46.25;;;;;;;;5047914;28;45328;-78
2024/01/16 03:07:13;;;;;;;;;69.25;57.75;;;;;;;;5054055;28;45489;-77
2024/01/16 03:09:39;;;;;;;;;65.50;53.25;;;;;;;;5050044;28;45442;-77
2024/01/16 03:12:04;;;;;;;;;61.50;50.50;;;;;;;;5052185;28;45204;-77
2024/01/16 03:14:33;;;;;;;;;18.50;14.50;;;;;;;;5054577;28;45349;-78
2024/01/16 03:16:59;;;;;;;;;58.75;48.25;;;;;;;;5050015;28;46081;-78
2024/01/16 03:19:24;;;;;;;;;53.75;47.75;;;;;;;;5048235;28;46240;-77
2024/01/16 03:21:49;;;;;;;;;58.75;47.75;;;;;;;;5045461;28;45353;-79
2024/01/16 03:24:14;;;;;;;;;50.75;45.75;;;;;;;;5060780;28;45602;-77
2024/01/16 03:26:40;;;;;;;;;57.75;50.50;;;;;;;;5050660;28;47642;-78
2024/01/16 03:29:06;;;;;;;;;55.25;46.75;;;;;;;;5050880;28;46975;-78
2024/01/16 03:31:31;;;;;;;;;63.25;51.00;;;;;;;;5049317;28;45487;-78
2024/01/16 03:33:56;;;;;;;;;44.25;41.75;;;;;;;;5052063;28;45185;-78
2024/01/16 03:36:24;;;;;;;;;60.75;50.50;;;;;;;;5053224;28;45204;-77
2024/01/16 03:38:50;;;;;;;;;47.00;42.25;;;;;;;;5054985;28;48349;-78
2024/01/16 03:41:15;;;;;;;;;54.25;46.75;;;;;;;;5053695;28;45260;-78
2024/01/16 03:43:40;;;;;;;;;58.50;51.00;;;;;;;;5054684;28;45370;-77
2024/01/16 03:46:06;;;;;;;;;54.50;45.00;;;;;;;;5053686;28;46288;-77
2024/01/16 03:48:31;;;;;;;;;52.25;46.50;;;;;;;;5051389;28;45531;-77
2024/01/16 03:50:57;;;;;;;;;53.50;47.25;;;;;;;;5068399;28;45529;-78
2024/01/16 03:53:22;;;;;;;;;51.75;46.50;;;;;;;;5070274;28;45480;-78
2024/01/16 03:55:48;;;;;;;;;55.50;46.50;;;;;;;;5069727;28;45335;-78
2024/01/16 03:58:13;;;;;;;;;48.50;43.75;;;;;;;;5069824;28;45335;-78
2024/01/16 04:00:38;;;;;;;;;57.25;49.00;;;;;;;;5074634;28;45390;-78
2024/01/16 04:03:04;;;;;;;;;64.25;55.50;;;;;;;;5052025;28;45406;-78
2024/01/16 04:05:29;;;;;;;;;61.25;50.50;;;;;;;;5048212;28;46819;-78
2024/01/16 04:07:54;;;;;;;;;66.25;55.00;;;;;;;;5059679;28;47822;-77
2024/01/16 04:10:19;;;;;;;;;64.25;51.00;;;;;;;;5069387;28;45321;-78
2024/01/16 04:12:44;;;;;;;;;58.50;48.75;;;;;;;;5073695;28;45221;-78
2024/01/16 04:15:10;;;;;;;;;62.75;51.75;;;;;;;;5068702;28;45448;-78
2024/01/16 04:17:35;;;;;;;;;51.00;43.25;;;;;;;;5049840;28;47179;-77
2024/01/16 04:20:00;;;;;;;;;62.00;51.75;;;;;;;;5068563;28;45275;-78
2024/01/16 04:22:25;;;;;;;;;61.75;51.25;;;;;;;;5066631;28;44665;-78
2024/01/16 04:24:51;;;;;;;;;53.50;47.00;;;;;;;;5067219;28;45173;-78
2024/01/16 04:27:16;;;;;;;;;57.25;46.75;;;;;;;;5067012;28;46467;-78
2024/01/16 04:29:41;;;;;;;;;62.00;50.75;;;;;;;;5066895;28;45398;-78
2024/01/16 04:32:06;;;;;;;;;62.25;51.75;;;;;;;;5065890;28;45265;-78
2024/01/16 04:34:32;;;;;;;;;61.25;51.00;;;;;;;;5047488;28;46929;-78
2024/01/16 04:36:57;;;;;;;;;50.75;46.50;;;;;;;;5066836;28;45345;-78
2024/01/16 04:39:22;;;;;;;;;50.50;44.75;;;;;;;;5067313;28;45252;-78
2024/01/16 04:41:48;;;;;;;;;48.25;43.25;;;;;;;;5069670;28;45855;-78
2024/01/16 04:44:13;;;;;;;;;54.00;46.50;;;;;;;;5066679;28;45662;-77
2024/01/16 04:46:38;;;;;;;;;54.00;48.00;;;;;;;;5065790;28;45315;-77
2024/01/16 04:49:03;;;;;;;;;52.25;44.25;;;;;;;;5045141;28;46042;-77
2024/01/16 04:51:28;;;;;;;;;52.00;46.75;;;;;;;;5052327;28;45300;-77
2024/01/16 04:53:54;;;;;;;;;50.75;45.50;;;;;;;;5066950;28;45467;-78
2024/01/16 04:56:21;;;;;;;;;54.75;47.00;;;;;;;;5047857;28;46448;-78
2024/01/16 04:58:46;;;;;;;;;47.00;42.50;;;;;;;;5066200;28;45386;-79
2024/01/16 05:01:12;;;;;;;;;48.50;43.75;;;;;;;;5047660;28;45541;-78
2024/01/16 05:03:37;;;;;;;;;46.75;43.00;;;;;;;;5067670;28;45383;-78
2024/01/16 05:06:03;;;;;;;;;44.00;36.50;;;;;;;;5067917;28;45448;-78
2024/01/16 05:08:28;;;;;;;;;43.25;40.25;;;;;;;;5053454;28;45233;-77
2024/01/16 05:10:53;;;;;;;;;38.50;33.75;;;;;;;;5071827;28;45558;-79
2024/01/16 05:13:18;;;;;;;;;48.00;40.50;;;;;;;;5067297;28;45419;-78
2024/01/16 05:15:43;;;;;;;;;40.25;38.50;;;;;;;;5065787;28;45364;-78
2024/01/16 05:18:09;;;;;;;;;43.00;40.50;;;;;;;;5046800;28;45874;-79
2024/01/16 05:20:34;;;;;;;;;37.25;35.25;;;;;;;;5046157;28;45407;-78
2024/01/16 05:23:00;;;;;;;;;42.25;41.75;;;;;;;;5070164;28;45477;-78
2024/01/16 05:25:25;;;;;;;;;44.50;42.25;;;;;;;;5069582;28;45296;-78
2024/01/16 05:27:50;;;;;;;;;46.25;42.50;;;;;;;;5067082;28;45409;-78
2024/01/16 05:30:16;;;;;;;;;39.00;36.75;;;;;;;;5067893;28;45268;-77
2024/01/16 05:32:41;;;;;;;;;47.50;41.50;;;;;;;;5046882;28;47085;-79
2024/01/16 05:35:06;;;;;;;;;41.75;37.50;;;;;;;;5069771;28;45881;-78
2024/01/16 05:37:31;;;;;;;;;45.25;37.25;;;;;;;;5054787;28;45280;-77
2024/01/16 05:39:57;;;;;;;;;33.50;24.50;;;;;;;;5070249;28;45575;-77
2024/01/16 05:42:22;;;;;;;;;41.50;36.75;;;;;;;;5073619;28;45490;-77
2024/01/16 05:44:47;;;;;;;;;48.00;42.25;;;;;;;;5070447;28;46747;-76
2024/01/16 05:47:13;;;;;;;;;45.75;40.75;;;;;;;;5069371;28;45455;-76
2024/01/16 05:49:38;;;;;;;;;49.00;39.50;;;;;;;;5079854;28;45414;-77
2024/01/16 05:52:03;;;;;;;;;54.50;42.75;;;;;;;;5093643;28;45316;-77
2024/01/16 05:54:28;;;;;;;;;52.25;45.25;;;;;;;;5096380;28;45208;-77
2024/01/16 05:56:54;;;;;;;;;39.25;33.00;;;;;;;;5092117;28;45304;-76
2024/01/16 05:59:19;;;;;;;;;47.75;39.50;;;;;;;;5057314;28;45424;-77
2024/01/16 06:01:44;;;;;;;;;52.75;43.75;;;;;;;;5055567;28;46108;-76
2024/01/16 06:04:09;;;;;;;;;51.00;44.00;;;;;;;;5046361;28;48586;-76
2024/01/16 06:06:34;;;;;;;;;48.00;45.25;;;;;;;;5061994;28;45321;-78
2024/01/16 06:09:04;;;;;;;;;54.25;46.75;;;;;;;;5066615;28;45303;-77
2024/01/16 06:11:30;;;;;;;;;53.25;46.25;;;;;;;;5071310;27;46259;-78
2024/01/16 06:13:55;;;;;;;;;60.50;49.25;;;;;;;;5063734;28;45497;-78
2024/01/16 06:16:20;;;;;;;;;46.50;42.50;;;;;;;;5065831;28;45288;-79
2024/01/16 06:18:46;;;;;;;;;50.50;43.00;;;;;;;;5066479;28;45320;-78
2024/01/16 06:21:12;;;;;;;;;44.50;41.25;;;;;;;;5063044;28;45545;-79
2024/01/16 06:23:37;;;;;;;;;43.50;39.75;;;;;;;;5059133;28;45610;-79
2024/01/16 06:26:02;;;;;;;;;42.25;40.25;;;;;;;;5040677;28;45866;-79
2024/01/16 06:28:27;;;;;;;;;24.50;20.50;;;;;;;;5059581;28;45256;-79
2024/01/16 06:30:53;;;;;;;;;46.50;42.00;;;;;;;;5061585;28;45269;-79
2024/01/16 06:33:18;;;;;;;;;44.25;42.25;;;;;;;;5043388;28;47328;-78
2024/01/16 06:35:43;;;;;;;;;47.25;41.00;;;;;;;;5040996;28;45858;-79
2024/01/16 06:38:11;;;;;;;;;46.50;41.75;;;;;;;;5066693;28;45328;-79
2024/01/16 06:40:36;;;;;;;;;33.25;29.25;;;;;;;;5045278;28;45879;-78
2024/01/16 06:43:01;;;;;;;;;44.50;39.25;;;;;;;;5058217;28;47171;-78
2024/01/16 06:45:27;;;;;;;;;42.75;39.25;;;;;;;;5079174;28;45411;-79
2024/01/16 06:47:52;;;;;;;;;38.25;35.00;;;;;;;;5062867;28;45304;-79
2024/01/16 06:50:17;;;;;;;;;49.75;46.75;;;;;;;;5062498;28;45295;-79
2024/01/16 06:52:42;;;;;;;;;45.25;43.75;;;;;;;;5044085;28;48453;-79
2024/01/16 06:55:07;;;;;;;;;42.25;39.50;;;;;;;;5044485;28;45288;-79
2024/01/16 06:57:33;;;;;;;;;50.00;44.25;;;;;;;;5045636;28;45327;-78
2024/01/16 06:59:58;;;;;;;;;36.00;34.75;;;;;;;;5062357;28;45526;-79
2024/01/16 07:02:23;;;;;;;;;52.50;44.00;;;;;;;;5070155;28;45363;-78
2024/01/16 07:04:48;;;;;;;;;45.75;43.75;;;;;;;;5082354;28;45358;-78
2024/01/16 07:07:14;;;;;;;;;50.25;45.00;;;;;;;;5064817;28;45567;-77
2024/01/16 07:09:39;;;;;;;;;61.00;52.25;;;;;;;;5082629;28;45332;-79
2024/01/16 07:12:04;;;;;;;;;53.50;47.25;;;;;;;;5082432;28;46085;-79
2024/01/16 07:14:29;;;;;;;;;62.50;51.00;;;;;;;;5064190;28;45260;-78
2024/01/16 07:16:55;;;;;;;;;68.00;53.00;;;;;;;;5082580;28;45531;-78
2024/01/16 07:19:20;;;;;;;;;69.00;53.50;;;;;;;;5082081;28;45340;-78
2024/01/16 07:21:45;;;;;;;;;73.75;62.00;;;;;;;;5078519;28;45583;-79
2024/01/16 07:24:12;;;;;;;;;78.25;64.00;;;;;;;;5079338;28;45659;-78
2024/01/16 07:26:37;;;;;;;;;79.50;63.50;;;;;;;;5064157;28;45292;-78
2024/01/16 07:29:02;;;;;;;;;71.75;58.75;;;;;;;;5082512;28;45254;-78
2024/01/16 07:31:27;;;;;;;;;66.75;57.00;;;;;;;;5082930;28;45207;-77
2024/01/16 07:33:52;;;;;;;;;67.00;55.75;;;;;;;;5082105;28;45263;-77
2024/01/16 07:36:18;;;;;;;;;67.50;56.75;;;;;;;;5052510;28;45324;-77
2024/01/16 07:38:43;;;;;;;;;68.75;55.75;;;;;;;;5069174;28;45716;-78
2024/01/16 07:41:09;;;;;;;;;68.00;58.50;;;;;;;;5055595;28;47269;-76
2024/01/16 07:43:35;;;;;;;;;59.25;50.75;;;;;;;;5070016;28;45313;-76
2024/01/16 07:46:00;;;;;;;;;67.75;55.25;;;;;;;;5043806;28;45300;-77
2024/01/16 07:48:25;;;;;;;;;60.75;50.25;;;;;;;;5061389;28;45483;-78
2024/01/16 07:50:51;;;;;;;;;68.75;58.00;;;;;;;;5073921;27;45318;-77
2024/01/16 07:53:16;;;;;;;;;67.25;55.75;;;;;;;;5081629;27;45331;-76
2024/01/16 07:55:41;;;;;;;;;73.25;57.75;;;;;;;;5081026;28;45572;-76
2024/01/16 07:58:07;;;;;;;;;76.25;63.00;;;;;;;;5049046;28;45879;-77
2024/01/16 08:00:32;;;;;;;;;68.50;55.50;;;;;;;;5060123;28;45957;-77
2024/01/16 08:02:57;;;;;;;;;64.75;51.25;;;;;;;;5052048;28;45356;-76
2024/01/16 08:05:25;;;;;;;;;45.25;41.25;;;;;;;;5069550;28;47064;-77
2024/01/16 08:07:50;;;;;;;;;55.75;48.25;;;;;;;;5064779;28;45534;-77
2024/01/16 08:10:15;;;;;;;;;65.00;53.50;;;;;;;;5069056;28;45328;-77
2024/01/16 08:12:41;;;;;;;;;67.75;56.75;;;;;;;;5054690;28;45341;-77
2024/01/16 08:15:07;;;;;;;;;71.00;58.50;;;;;;;;5070759;28;45576;-77
2024/01/16 08:17:32;;;;;;;;;60.75;49.25;;;;;;;;5071718;28;45243;-77
2024/01/16 08:19:57;;;;;;;;;67.75;56.00;;;;;;;;5048309;28;47070;-76
2024/01/16 08:22:23;;;;;;;;;78.00;61.75;;;;;;;;5087044;28;45207;-76
2024/01/16 08:24:48;;;;;;;;;62.50;52.00;;;;;;;;5078532;27;45398;-77
2024/01/16 08:27:13;;;;;;;;;63.75;51.75;;;;;;;;5050001;28;46169;-78
2024/01/16 08:29:39;;;;;;;;;65.00;54.25;;;;;;;;5042453;28;47406;-77
2024/01/16 08:32:04;;;;;;;;;74.75;61.25;;;;;;;;5061138;28;45397;-76
2024/01/16 08:34:29;;;;;;;;;63.50;53.25;;;;;;;;5070833;28;45410;-78
2024/01/16 08:36:56;;;;;;;;;71.50;59.75;;;;;;;;5040288;28;45921;-77
2024/01/16 08:39:22;;;;;;;;;70.00;55.75;;;;;;;;5063698;28;45536;-77
2024/01/16 08:41:47;;;;;;;;;68.75;55.00;;;;;;;;5071039;28;45382;-77
2024/01/16 08:44:12;;;;;;;;;70.00;56.25;;;;;;;;5070359;28;45484;-76
2024/01/16 08:46:37;;;;;;;;;67.75;57.25;;;;;;;;5059525;28;45324;-76
2024/01/16 08:49:02;;;;;;;;;64.75;53.50;;;;;;;;5059753;28;46543;-77
2024/01/16 08:51:27;;;;;;;;;68.75;56.00;;;;;;;;5064751;28;45370;-76
2024/01/16 08:53:53;;;;;;;;;84.25;68.00;;;;;;;;5070443;28;45350;-77
2024/01/16 08:56:18;;;;;;;;;104.00;86.75;;;;;;;;5041717;28;45904;-77
2024/01/16 08:58:43;;;;;;;;;85.25;68.50;;;;;;;;5061306;28;45405;-78
2024/01/16 09:01:10;;;;;;;;;82.25;65.00;;;;;;;;5064564;28;45412;-77
2024/01/16 09:03:35;;;;;;;;;87.50;69.00;;;;;;;;5060104;28;45374;-77
2024/01/16 09:06:01;;;;;;;;;83.00;64.25;;;;;;;;5062750;28;45379;-77
2024/01/16 09:08:26;;;;;;;;;72.25;60.75;;;;;;;;5041409;28;47418;-77
2024/01/16 09:10:52;;;;;;;;;76.25;62.50;;;;;;;;5041692;28;45190;-77
2024/01/16 09:13:17;;;;;;;;;77.25;63.00;;;;;;;;5060224;28;45355;-77
2024/01/16 09:15:42;;;;;;;;;85.00;67.00;;;;;;;;5059989;28;45728;-78
2024/01/16 09:18:07;;;;;;;;;82.50;66.25;;;;;;;;5048949;28;48258;-77
2024/01/16 09:20:33;;;;;;;;;77.50;61.00;;;;;;;;5070739;28;45347;-78
2024/01/16 09:22:58;;;;;;;;;80.00;64.50;;;;;;;;5080396;27;45193;-77
2024/01/16 09:25:29;;;;;;;;;84.75;67.00;;;;;;;;5080396;28;45221;-77
2024/01/16 09:27:54;;;;;;;;;84.75;67.25;;;;;;;;5082512;28;45472;-77
2024/01/16 09:30:21;;;;;;;;;141.00;132.33;;;;;;;;5084881;28;45331;-77
2024/01/16 09:32:47;;;;;;;;;83.75;65.25;;;;;;;;5086684;28;45417;-79
2024/01/16 09:35:12;;;;;;;;;85.50;68.00;;;;;;;;5057416;28;46944;-82
2024/01/16 09:37:38;;;;;;;;;86.00;67.00;;;;;;;;5068615;28;45256;-81
2024/01/16 09:40:05;;;;;;;;;75.00;61.50;;;;;;;;5070039;28;45404;-80
2024/01/16 09:42:30;;;;;;;;;80.25;63.75;;;;;;;;5066539;28;45276;-81
2024/01/16 09:44:55;;;;;;;;;89.00;70.50;;;;;;;;5067568;28;45416;-81
2024/01/16 09:47:21;;;;;;;;;85.00;67.50;;;;;;;;5067272;28;46234;-80
2024/01/16 09:49:47;;;;;;;;;81.50;67.25;;;;;;;;5045237;28;45433;-80
2024/01/16 09:52:12;;;;;;;;;87.00;68.25;;;;;;;;5050934;28;45412;-79
2024/01/16 09:54:37;;;;;;;;;83.25;66.00;;;;;;;;5078460;28;45346;-80
2024/01/16 09:57:06;;;;;;;;;76.75;62.00;;;;;;;;5072652;28;45406;-79
2024/01/16 09:59:32;;;;;;;;;87.25;69.00;;;;;;;;5068069;28;45347;-80
2024/01/16 10:02:00;;;;;;;;;82.50;65.25;;;;;;;;5063720;28;45384;-79
2024/01/16 10:04:27;;;;;;;;;79.50;65.00;;;;;;;;5070336;28;45460;-79
2024/01/16 10:06:53;;;;;;;;;82.00;63.75;;;;;;;;5081999;28;46101;-80
2024/01/16 10:09:18;;;;;;;;;87.50;66.50;;;;;;;;5076158;28;45915;-81
2024/01/16 10:11:44;;;;;;;;;101.00;79.00;;;;;;;;5081859;28;45465;-81
2024/01/16 10:14:10;;;;;;;;;98.25;82.00;;;;;;;;5074628;28;45466;-79
2024/01/16 10:16:54;;;;;;;;;93.50;73.50;;;;;;;;5054667;28;48206;-80
2024/01/16 10:19:21;;;;;;;;;89.25;70.75;;;;;;;;5069734;28;45343;-79
2024/01/16 10:21:46;;;;;;;;;84.75;66.00;;;;;;;;5052177;28;45359;-79
2024/01/16 10:24:13;;;;;;;;;78.25;63.50;;;;;;;;5082694;28;45540;-80
2024/01/16 10:26:38;;;;;;;;;76.25;62.25;;;;;;;;5077389;28;45360;-79
2024/01/16 10:29:04;;;;;;;;;84.50;66.00;;;;;;;;5059472;28;45284;-79
2024/01/16 10:31:30;;;;;;;;;77.75;63.25;;;;;;;;5059113;28;45355;-80
2024/01/16 10:33:56;;;;;;;;;76.75;63.00;;;;;;;;5059598;28;45418;-78
2024/01/16 10:36:23;;;;;;;;;72.50;60.50;;;;;;;;5066532;28;46712;-79
2024/01/16 10:38:54;;;;;;;;;68.25;57.00;;;;;;;;5065389;28;45334;-81
2024/01/16 10:41:24;;;;;;;;;57.25;49.25;;;;;;;;5064463;28;45260;-80
2024/01/16 10:44:02;;;;;;;;;70.50;57.00;;;;;;;;5052011;27;45892;-80
2024/01/16 10:46:28;;;;;;;;;69.50;59.00;;;;;;;;5084212;28;45281;-81
2024/01/16 10:49:03;;;;;;;;;71.50;57.75;;;;;;;;5061914;28;45407;-81
2024/01/16 10:51:29;;;;;;;;;66.00;54.00;;;;;;;;5061997;28;45392;-81
2024/01/16 10:53:58;;;;;;;;;72.50;57.50;;;;;;;;5080144;28;45284;-82
2024/01/16 10:56:24;;;;;;;;;76.00;59.00;;;;;;;;5080252;28;45700;-81
2024/01/16 10:58:55;;;;;;;;;67.75;56.25;;;;;;;;5044734;28;46038;-81
2024/01/16 11:01:21;;;;;;;;;55.50;44.75;;;;;;;;5066459;28;45425;-80
2024/01/16 11:03:52;;;;;;;;;37.00;32.25;;;;;;;;5042997;28;47170;-82
2024/01/16 11:06:17;;;;;;;;;38.75;35.50;;;;;;;;5058680;28;45359;-80
2024/01/16 11:08:48;;;;;;;;;57.50;49.00;;;;;;;;5061430;28;45452;-81
2024/01/16 11:11:14;;;;;;;;;41.75;37.50;;;;;;;;5058299;28;45327;-80
2024/01/16 11:13:41;;;;;;;;;41.75;39.00;;;;;;;;5056572;28;46930;-82
2024/01/16 11:16:08;;;;;;;;;39.75;37.00;;;;;;;;5062119;28;45366;-82
2024/01/16 11:18:34;;;;;;;;;29.75;29.25;;;;;;;;5063797;28;45319;-81
2024/01/16 11:21:03;;;;;;;;;31.75;27.25;;;;;;;;5047771;28;45349;-81
2024/01/16 11:23:28;;;;;;;;;37.25;32.25;;;;;;;;5078761;27;45474;-82
2024/01/16 11:25:54;;;;;;;;;26.75;26.25;;;;;;;;5077865;28;45477;-81
2024/01/16 11:28:19;;;;;;;;;25.50;22.75;;;;;;;;5078432;28;45303;-82
2024/01/16 11:30:45;;;;;;;;;19.75;18.00;;;;;;;;5079196;28;45295;-82
2024/01/16 11:33:29;;;;;;;;;18.00;17.00;;;;;;;;5081746;28;45560;-81
2024/01/16 11:35:54;;;;;;;;;17.33;15.67;;;;;;;;5063615;28;48510;-80
2024/01/16 11:38:21;;;;;;;;;15.67;15.00;;;;;;;;5081901;28;45417;-82
2024/01/16 11:40:47;;;;;;;;;17.25;15.50;;;;;;;;5082634;28;45530;-83
2024/01/16 11:43:34;;;;;;;;;21.50;19.50;;;;;;;;5082045;28;45466;-82
2024/01/16 11:46:01;;;;;;;;;23.50;22.00;;;;;;;;5050694;28;47393;-80
2024/01/16 11:48:26;;;;;;;;;26.50;21.75;;;;;;;;5080089;28;45407;-79
2024/01/16 11:50:52;;;;;;;;;24.25;21.25;;;;;;;;5064755;28;45355;-80
2024/01/16 11:53:29;;;;;;;;;23.75;21.00;;;;;;;;5055390;28;47560;-80
2024/01/16 11:56:14;;;;;;;;;20.75;20.50;;;;;;;;5053846;28;47054;-81
2024/01/16 11:58:46;;;;;;;;;20.25;19.75;;;;;;;;5050014;28;45359;-82
2024/01/16 12:01:12;;;;;;;;;16.25;16.25;;;;;;;;5051815;28;45355;-82
2024/01/16 12:03:37;;;;;;;;;20.50;18.25;;;;;;;;5071640;28;45561;-81
2024/01/16 12:06:03;;;;;;;;;16.00;16.00;;;;;;;;5078972;28;45447;-81
2024/01/16 12:08:29;;;;;;;;;14.00;12.00;;;;;;;;5075998;27;45509;-81
2024/01/16 12:10:54;;;;;;;;;20.00;19.00;;;;;;;;5072563;28;45387;-81
2024/01/16 12:13:19;;;;;;;;;13.67;12.00;;;;;;;;5061468;28;45443;-81
2024/01/16 12:15:46;;;;;;;;;16.00;16.00;;;;;;;;5062749;28;45427;-81
2024/01/16 12:18:17;;;;;;;;;20.00;18.33;;;;;;;;5062698;28;45498;-80
2024/01/16 12:20:42;;;;;;;;;16.33;13.67;;;;;;;;5073711;28;45497;-82
2024/01/16 12:23:09;;;;;;;;;13.33;12.00;;;;;;;;5048033;28;45411;-82
2024/01/16 12:25:35;;;;;;;;;12.00;11.67;;;;;;;;5037597;28;45786;-82
2024/01/16 12:28:01;;;;;;;;;11.33;8.00;;;;;;;;5038303;28;45500;-82
2024/01/16 12:30:28;;;;;;;;;10.33;8.67;;;;;;;;5053729;28;45654;-83
2024/01/16 12:33:02;;;;;;;;;12.00;11.67;;;;;;;;5072839;28;45307;-85
2024/01/16 12:35:27;;;;;;;;;12.00;12.00;;;;;;;;5081253;28;46584;-81
2024/01/16 12:37:59;;;;;;;;;14.67;12.00;;;;;;;;5049594;28;45362;-81
2024/01/16 12:40:25;;;;;;;;;16.33;16.00;;;;;;;;5063679;28;45729;-81
2024/01/16 12:42:50;;;;;;;;;18.00;18.00;;;;;;;;5056476;28;45988;-79
2024/01/16 12:45:16;;;;;;;;;14.67;12.67;;;;;;;;5071449;28;45279;-78
2024/01/16 12:47:42;;;;;;;;;12.00;12.00;;;;;;;;5068641;28;45723;-78
2024/01/16 12:50:08;;;;;;;;;9.33;7.33;;;;;;;;5042493;28;45355;-79
2024/01/16 12:52:33;;;;;;;;;7.33;7.33;;;;;;;;5059568;28;45844;-80
2024/01/16 12:55:00;;;;;;;;;7.00;7.00;;;;;;;;5043322;28;47446;-80
2024/01/16 12:57:25;;;;;;;;;10.00;8.00;;;;;;;;5065326;28;45327;-78
2024/01/16 12:59:51;;;;;;;;;3.67;3.67;;;;;;;;5055204;28;45530;-79
2024/01/16 13:02:24;;;;;;;;;11.00;9.00;;;;;;;;5058394;28;45507;-81
2024/01/16 13:04:59;;;;;;;;;8.00;8.00;;;;;;;;5031421;28;47443;-79
2024/01/16 13:07:25;;;;;;;;;9.00;8.67;;;;;;;;5066766;28;45322;-78
2024/01/16 13:10:05;;;;;;;;;7.33;7.00;;;;;;;;5041032;28;45355;-77
2024/01/16 13:12:33;;;;;;;;;8.00;8.00;;;;;;;;5059265;28;45520;-77
2024/01/16 13:14:58;;;;;;;;;9.67;8.00;;;;;;;;5058772;28;45283;-77
2024/01/16 13:17:23;;;;;;;;;12.00;11.67;;;;;;;;5039705;28;45350;-76
2024/01/16 13:19:48;;;;;;;;;12.00;10.33;;;;;;;;5063909;28;45425;-78
2024/01/16 13:22:13;;;;;;;;;7.33;7.33;;;;;;;;5068365;28;45301;-77
2024/01/16 13:24:39;;;;;;;;;11.67;11.00;;;;;;;;5060210;28;45240;-77
2024/01/16 13:27:06;;;;;;;;;10.33;8.00;;;;;;;;5060596;28;45324;-77
2024/01/16 13:29:35;;;;;;;;;10.00;8.00;;;;;;;;5069488;28;45527;-79
2024/01/16 13:32:00;;;;;;;;;9.00;7.33;;;;;;;;5044059;28;46160;-79
2024/01/16 13:34:25;;;;;;;;;9.00;9.00;;;;;;;;5058633;28;45437;-79
2024/01/16 13:36:51;;;;;;;;;13.00;10.67;;;;;;;;5041262;28;45427;-79
2024/01/16 13:39:16;;;;;;;;;13.00;13.00;;;;;;;;5041229;28;45504;-78
2024/01/16 13:41:42;;;;;;;;;14.67;9.67;;;;;;;;5054532;28;45399;-78
2024/01/16 13:44:07;;;;;;;;;10.33;9.67;;;;;;;;5077418;28;45905;-80
2024/01/16 13:46:32;;;;;;;;;14.00;10.33;;;;;;;;5062230;28;45432;-80
2024/01/16 13:48:57;;;;;;;;;10.00;7.00;;;;;;;;5059765;28;45320;-80
2024/01/16 13:51:24;;;;;;;;;8.00;6.33;;;;;;;;5041418;28;45798;-78
2024/01/16 13:53:49;;;;;;;;;13.67;12.00;;;;;;;;5058334;28;45284;-77
2024/01/16 13:56:14;;;;;;;;;9.67;9.67;;;;;;;;5070632;27;45215;-76
2024/01/16 14:02:39;;;;;;;;;;;;;;;;;;;;;
2024/01/16 14:14:21;;;;;;;;;11.00;10.67;;;;;;;;4982346;28;45531;-78
2024/01/16 14:16:49;;;;;;;;;12.00;10.67;;;;;;;;4966388;28;47285;-80
2024/01/16 14:19:14;;;;;;;;;13.33;12.33;;;;;;;;4977506;28;45581;-77
2024/01/16 14:21:39;;;;;;;;;12.33;11.67;;;;;;;;4959885;28;45611;-77
2024/01/16 14:24:04;;;;;;;;;3.33;3.33;;;;;;;;5031776;28;45333;-78